Time;durP1;ratioP1;P1;durP2;ratioP2;P2;SDS_P1;SDS_P2;PMS_P1;PMS_P2;Temp;Humidity;BMP_temperature;BMP_pressure;BME280_temperature;BME280_humidity;BME280_pressure;Samples;Min_cycle;Max_cycle;Signal;HPM_P1;HPM_P2
2023/09/01 00:00:29;;;;;;;5.43;4.93;;;13.60;1.00;;;;;;5035754;28;20548;-75
2023/09/01 00:02:54;;;;;;;6.07;5.67;;;13.60;1.00;;;;;;5051931;28;20174;-65
2023/09/01 00:05:20;;;;;;;7.07;4.10;;;13.60;1.00;;;;;;5053500;28;20905;-75
2023/09/01 00:07:46;;;;;;;7.87;4.70;;;13.60;1.00;;;;;;5055872;28;20606;-66
2023/09/01 00:10:11;;;;;;;4.37;3.97;;;13.70;1.00;;;;;;5054458;28;20171;-72
2023/09/01 00:12:37;;;;;;;5.63;5.03;;;13.60;1.00;;;;;;5054688;28;20299;-67
2023/09/01 00:15:03;;;;;;;6.10;4.30;;;13.60;1.00;;;;;;5039522;28;20203;-73
2023/09/01 00:17:29;;;;;;;5.33;4.50;;;13.70;1.00;;;;;;5046921;28;20667;-67
2023/09/01 00:19:54;;;;;;;6.83;6.17;;;13.70;1.00;;;;;;5053550;28;20410;-73
2023/09/01 00:22:20;;;;;;;6.37;4.43;;;13.70;1.00;;;;;;5055514;28;20655;-74
2023/09/01 00:24:46;;;;;;;7.10;4.67;;;13.70;1.00;;;;;;5055384;28;20159;-75
2023/09/01 00:27:11;;;;;;;6.70;4.33;;;13.60;1.00;;;;;;5053303;28;20178;-74
2023/09/01 00:29:37;;;;;;;4.83;4.30;;;13.50;1.00;;;;;;5053694;28;20182;-70
2023/09/01 00:32:03;;;;;;;5.90;5.30;;;13.60;1.00;;;;;;5053787;28;20528;-75
2023/09/01 00:34:30;;;;;;;5.47;4.40;;;13.50;1.00;;;;;;5055229;28;20408;-66
2023/09/01 00:36:56;;;;;;;11.37;4.43;;;13.50;1.00;;;;;;5052461;28;20460;-75
2023/09/01 00:39:22;;;;;;;7.30;4.40;;;13.50;1.00;;;;;;5054363;28;20436;-76
2023/09/01 00:41:48;;;;;;;8.90;4.50;;;13.60;1.00;;;;;;5055249;28;20890;-65
2023/09/01 00:44:14;;;;;;;4.77;3.73;;;13.50;1.00;;;;;;5054731;28;20210;-70
2023/09/01 00:46:43;;;;;;;6.03;4.23;;;13.50;1.00;;;;;;5043910;28;20190;-66
2023/09/01 00:49:10;;;;;;;5.97;4.60;;;13.60;1.00;;;;;;5054733;28;20428;-75
2023/09/01 00:51:37;;;;;;;5.70;4.57;;;13.60;1.00;;;;;;5054822;28;20417;-76
2023/09/01 00:54:03;;;;;;;5.33;4.10;;;13.60;1.00;;;;;;5054794;28;20493;-73
2023/09/01 00:56:29;;;;;;;6.30;3.77;;;13.60;1.00;;;;;;5053944;28;20464;-75
2023/09/01 00:58:54;;;;;;;15.83;4.73;;;13.60;1.00;;;;;;5053659;28;20492;-67
2023/09/01 01:01:20;;;;;;;4.80;3.27;;;13.60;1.00;;;;;;5035359;28;20183;-65
2023/09/01 01:03:49;;;;;;;9.33;4.00;;;13.70;1.00;;;;;;5033757;28;20179;-65
2023/09/01 01:06:50;;;;;;;4.83;4.00;;;13.60;1.00;;;;;;5033815;28;20170;-75
2023/09/01 01:09:31;;;;;;;6.60;3.70;;;13.60;1.00;;;;;;5031465;28;20815;-72
2023/09/01 01:12:28;;;;;;;12.63;4.87;;;13.60;1.00;;;;;;5034444;28;20405;-69
2023/09/01 01:14:58;;;;;;;9.93;3.90;;;13.60;1.00;;;;;;5034123;28;20965;-74
2023/09/01 01:17:25;;;;;;;4.30;3.90;;;13.60;1.00;;;;;;5053349;28;20422;-75
2023/09/01 01:20:18;;;;;;;4.63;3.83;;;13.60;1.00;;;;;;5052577;28;20429;-66
2023/09/01 01:22:53;;;;;;;9.93;4.93;;;13.60;1.00;;;;;;5054336;28;20397;-65
2023/09/01 01:25:20;;;;;;;4.90;3.77;;;13.50;1.00;;;;;;5051978;28;20501;-69
2023/09/01 01:27:45;;;;;;;6.63;3.83;;;13.60;1.00;;;;;;5054167;28;20402;-74
2023/09/01 01:30:15;;;;;;;6.40;3.93;;;13.60;1.00;;;;;;5052518;28;20512;-75
2023/09/01 01:32:42;;;;;;;5.67;3.93;;;13.50;1.00;;;;;;5052433;28;20174;-67
2023/09/01 01:35:21;;;;;;;4.87;4.20;;;13.60;1.00;;;;;;5051152;28;20453;-76
2023/09/01 01:37:56;;;;;;;9.20;5.40;;;13.50;1.00;;;;;;5053995;28;20425;-75
2023/09/01 01:40:24;;;;;;;5.30;4.33;;;13.50;1.00;;;;;;5052998;28;20396;-65
2023/09/01 01:42:53;;;;;;;6.63;4.70;;;13.50;1.00;;;;;;5053894;28;20406;-75
2023/09/01 01:45:22;;;;;;;11.73;5.73;;;13.50;1.00;;;;;;5039965;28;20872;-75
2023/09/01 01:47:50;;;;;;;9.83;6.93;;;13.50;1.00;;;;;;5033847;28;20929;-66
2023/09/01 01:50:16;;;;;;;8.13;5.53;;;13.50;1.00;;;;;;5033230;28;20426;-74
2023/09/01 01:52:42;;;;;;;10.73;6.00;;;13.40;1.00;;;;;;5032568;28;20514;-71
2023/09/01 01:55:09;;;;;;;8.80;6.10;;;13.50;1.00;;;;;;5031827;28;20553;-65
2023/09/01 01:57:36;;;;;;;6.43;5.87;;;13.50;1.00;;;;;;5033580;28;20191;-70
2023/09/01 02:00:03;;;;;;;8.27;6.47;;;13.50;1.00;;;;;;5041416;28;20433;-75
2023/09/01 02:02:29;;;;;;;9.97;7.23;;;13.50;1.00;;;;;;5053714;28;20808;-66
2023/09/01 02:04:55;;;;;;;8.83;6.70;;;13.50;1.00;;;;;;5053287;28;20480;-69
2023/09/01 02:07:21;;;;;;;8.67;6.60;;;13.50;1.00;;;;;;5051754;28;20187;-67
2023/09/01 02:09:46;;;;;;;13.43;7.27;;;13.40;1.00;;;;;;5052378;28;20174;-69
2023/09/01 02:12:12;;;;;;;8.57;6.30;;;13.40;1.00;;;;;;5053348;28;20166;-66
2023/09/01 02:14:38;;;;;;;7.63;6.00;;;13.50;1.00;;;;;;5051658;28;20190;-75
2023/09/01 02:17:05;;;;;;;12.70;6.97;;;13.50;1.00;;;;;;5052363;28;20221;-66
2023/09/01 02:19:31;;;;;;;12.70;6.80;;;13.40;1.00;;;;;;5051725;28;20283;-67
2023/09/01 02:21:56;;;;;;;11.17;7.37;;;13.50;1.00;;;;;;5053094;28;20484;-75
2023/09/01 02:24:22;;;;;;;13.63;6.73;;;13.40;1.00;;;;;;5053435;28;20163;-76
2023/09/01 02:26:48;;;;;;;8.17;6.20;;;13.40;1.00;;;;;;5052039;28;20178;-73
2023/09/01 02:29:13;;;;;;;9.63;6.67;;;13.40;1.00;;;;;;5050703;28;20202;-74
2023/09/01 02:31:39;;;;;;;7.43;6.73;;;13.50;1.00;;;;;;5051863;28;20655;-75
2023/09/01 02:34:05;;;;;;;9.10;6.93;;;13.50;1.00;;;;;;5053009;28;20701;-65
2023/09/01 02:36:33;;;;;;;11.10;5.67;;;13.40;1.00;;;;;;5052167;28;20201;-75
2023/09/01 02:38:59;;;;;;;6.97;6.07;;;13.50;1.00;;;;;;5053002;28;20197;-66
2023/09/01 02:41:26;;;;;;;9.87;6.17;;;13.50;1.00;;;;;;5051923;28;20928;-75
2023/09/01 02:43:52;;;;;;;10.23;6.60;;;13.50;1.00;;;;;;5051375;28;20436;-67
2023/09/01 02:46:18;;;;;;;7.90;6.40;;;13.50;1.00;;;;;;5051530;28;20462;-73
2023/09/01 02:48:44;;;;;;;8.50;5.90;;;13.60;1.00;;;;;;5046433;28;20511;-66
2023/09/01 02:51:10;;;;;;;8.00;6.80;;;13.60;1.00;;;;;;5032637;28;20446;-74
2023/09/01 02:53:37;;;;;;;10.10;6.70;;;13.60;1.00;;;;;;5032986;28;20218;-65
2023/09/01 02:56:03;;;;;;;10.10;7.77;;;13.70;1.00;;;;;;5030685;28;20459;-66
2023/09/01 02:58:29;;;;;;;13.93;6.80;;;13.70;1.00;;;;;;5039075;28;20445;-66
2023/09/01 03:00:55;;;;;;;11.17;7.43;;;13.70;1.00;;;;;;5052823;28;20890;-72
2023/09/01 03:03:22;;;;;;;9.40;6.00;;;13.60;1.00;;;;;;5054117;28;20162;-66
2023/09/01 03:05:50;;;;;;;7.70;6.33;;;13.70;1.00;;;;;;5055745;28;20417;-65
2023/09/01 03:08:20;;;;;;;9.63;6.10;;;13.70;1.00;;;;;;5050447;28;20450;-73
2023/09/01 03:10:47;;;;;;;10.13;5.70;;;13.60;1.00;;;;;;5036309;28;20432;-74
2023/09/01 03:13:12;;;;;;;10.50;5.90;;;13.60;1.00;;;;;;5038545;28;20440;-70
2023/09/01 03:15:40;;;;;;;6.17;5.63;;;13.60;1.00;;;;;;5055796;28;20960;-74
2023/09/01 03:18:06;;;;;;;8.37;5.73;;;13.60;1.00;;;;;;5056561;28;20273;-66
2023/09/01 03:20:32;;;;;;;9.30;6.03;;;13.60;1.00;;;;;;5056561;28;20454;-69
2023/09/01 03:22:57;;;;;;;7.63;5.57;;;13.60;4.30;;;;;;5044180;28;20842;-73
2023/09/01 03:25:24;;;;;;;7.13;5.23;;;13.60;11.20;;;;;;5034688;28;20183;-65
2023/09/01 03:27:50;;;;;;;9.93;5.87;;;13.70;15.40;;;;;;5036428;28;20195;-73
2023/09/01 03:30:15;;;;;;;6.93;5.90;;;13.60;14.00;;;;;;5053369;28;20413;-66
2023/09/01 03:32:41;;;;;;;10.97;6.07;;;13.60;17.50;;;;;;5055974;28;20175;-74
2023/09/01 03:35:07;;;;;;;7.80;5.70;;;13.60;25.20;;;;;;5055593;28;20202;-74
2023/09/01 03:37:33;;;;;;;9.93;5.80;;;13.70;35.80;;;;;;5056202;28;20420;-66
2023/09/01 03:39:59;;;;;;;7.67;6.03;;;13.60;35.80;;;;;;5056159;28;20480;-66
2023/09/01 03:42:26;;;;;;;13.57;5.50;;;13.60;35.80;;;;;;5055443;28;20955;-69
2023/09/01 03:44:52;;;;;;;10.40;6.57;;;13.70;46.90;;;;;;5053427;28;20847;-66
2023/09/01 03:47:18;;;;;;;7.83;5.40;;;13.70;56.60;;;;;;5055305;28;20451;-66
2023/09/01 03:49:44;;;;;;;5.17;4.63;;;13.70;62.00;;;;;;5056144;28;20416;-67
2023/09/01 03:52:10;;;;;;;5.33;4.20;;;13.70;62.70;;;;;;5056059;28;20394;-65
2023/09/01 03:54:36;;;;;;;6.20;4.53;;;13.70;60.00;;;;;;5055820;28;20608;-66
2023/09/01 03:57:01;;;;;;;11.17;5.53;;;13.70;58.40;;;;;;5053567;28;20199;-75
2023/09/01 03:59:27;;;;;;;5.67;4.73;;;13.70;59.60;;;;;;5054414;28;20171;-66
2023/09/01 04:01:53;;;;;;;4.97;4.53;;;13.70;58.90;;;;;;5054251;28;20254;-68
2023/09/01 04:04:19;;;;;;;4.93;4.53;;;13.70;57.40;;;;;;5054612;28;20171;-74
2023/09/01 04:06:45;;;;;;;4.73;4.33;;;13.70;61.30;;;;;;5053504;28;20178;-74
2023/09/01 04:09:11;;;;;;;19.07;5.70;;;13.70;64.30;;;;;;5055692;28;20456;-71
2023/09/01 04:11:37;;;;;;;7.77;5.13;;;13.60;62.70;;;;;;5052447;28;20879;-74
2023/09/01 04:14:03;;;;;;;7.73;4.63;;;13.60;66.00;;;;;;5038402;28;20433;-66
2023/09/01 04:16:29;;;;;;;5.17;4.47;;;13.60;67.60;;;;;;5032779;28;20574;-74
2023/09/01 04:18:55;;;;;;;7.00;4.80;;;13.60;72.60;;;;;;5034477;28;20453;-74
2023/09/01 04:21:21;;;;;;;5.87;3.77;;;13.70;75.50;;;;;;5035531;28;20402;-72
2023/09/01 04:23:47;;;;;;;7.83;3.97;;;13.60;76.80;;;;;;5035549;28;20390;-75
2023/09/01 04:26:13;;;;;;;4.67;4.20;;;13.70;83.30;;;;;;5034305;28;20912;-69
2023/09/01 04:28:39;;;;;;;5.20;4.40;;;13.70;83.30;;;;;;5050344;28;20253;-72
2023/09/01 04:31:30;;;;;;;10.33;4.80;;;13.70;90.40;;;;;;5055368;28;20178;-66
2023/09/01 04:33:56;;;;;;;6.57;4.20;;;13.70;92.70;;;;;;5054963;28;20220;-73
2023/09/01 04:36:23;;;;;;;10.50;4.40;;;13.80;93.70;;;;;;5053502;28;20445;-67
2023/09/01 04:38:49;;;;;;;7.60;5.00;;;13.80;95.00;;;;;;5054991;28;20410;-66
2023/09/01 04:41:14;;;;;;;5.07;4.33;;;13.80;95.20;;;;;;5054223;28;20471;-72
2023/09/01 04:43:41;;;;;;;6.17;4.40;;;13.80;96.90;;;;;;5053592;28;20429;-74
2023/09/01 04:46:07;;;;;;;6.50;4.60;;;13.90;98.90;;;;;;5054085;28;20167;-74
2023/09/01 04:48:34;;;;;;;7.70;5.03;;;13.90;99.90;;;;;;5053620;28;20559;-69
2023/09/01 04:51:02;;;;;;;5.73;4.53;;;13.90;99.90;;;;;;5054794;28;20182;-71
2023/09/01 04:53:28;;;;;;;7.93;4.43;;;14.00;99.90;;;;;;5054095;28;20402;-74
2023/09/01 04:55:54;;;;;;;8.00;4.80;;;14.00;99.90;;;;;;5053012;28;20460;-67
2023/09/01 04:58:20;;;;;;;5.53;4.83;;;14.00;99.90;;;;;;5041736;28;20442;-74
2023/09/01 05:00:46;;;;;;;4.40;4.00;;;14.00;99.90;;;;;;5034789;28;20729;-66
2023/09/01 05:03:12;;;;;;;7.33;4.60;;;14.00;99.90;;;;;;5034663;28;20508;-66
2023/09/01 05:05:38;;;;;;;9.93;5.07;;;14.00;99.90;;;;;;5033898;28;20402;-65
2023/09/01 05:08:04;;;;;;;9.43;5.30;;;14.10;99.90;;;;;;5032759;28;20281;-65
2023/09/01 05:10:30;;;;;;;4.90;4.50;;;14.10;99.90;;;;;;5047674;28;20183;-71
2023/09/01 05:12:55;;;;;;;5.13;4.60;;;14.10;99.90;;;;;;5045883;28;20180;-69
2023/09/01 05:15:21;;;;;;;6.63;6.00;;;14.10;99.90;;;;;;5031636;28;20203;-74
2023/09/01 05:17:47;;;;;;;10.67;4.80;;;14.10;99.90;;;;;;5034484;28;20226;-66
2023/09/01 05:20:13;;;;;;;8.13;4.70;;;14.10;99.90;;;;;;5034457;28;20791;-74
2023/09/01 05:22:38;;;;;;;6.73;5.60;;;14.10;99.90;;;;;;5034375;28;20167;-74
2023/09/01 05:25:05;;;;;;;6.63;5.70;;;14.10;99.90;;;;;;5031858;28;20164;-74
2023/09/01 05:27:31;;;;;;;4.70;3.90;;;14.10;99.90;;;;;;5043390;28;20560;-75
2023/09/01 05:29:57;;;;;;;10.67;5.00;;;14.20;99.90;;;;;;5054241;28;20408;-72
2023/09/01 05:32:23;;;;;;;7.63;4.43;;;14.10;99.90;;;;;;5053320;28;20270;-73
2023/09/01 05:34:49;;;;;;;5.63;4.57;;;14.20;99.90;;;;;;5054112;28;20190;-66
2023/09/01 05:37:15;;;;;;;6.87;5.23;;;14.20;99.90;;;;;;5051834;28;20457;-70
2023/09/01 05:39:42;;;;;;;12.33;5.00;;;14.20;99.90;;;;;;5053887;28;20406;-67
2023/09/01 05:42:08;;;;;;;8.43;5.50;;;14.20;99.90;;;;;;5052383;28;20425;-75
2023/09/01 05:44:35;;;;;;;5.67;4.80;;;14.30;99.90;;;;;;5052689;28;20440;-65
2023/09/01 05:47:02;;;;;;;4.93;4.10;;;14.30;99.90;;;;;;5052887;28;20492;-65
2023/09/01 05:49:29;;;;;;;5.60;5.07;;;14.40;99.90;;;;;;5053229;28;20412;-64
2023/09/01 05:51:55;;;;;;;6.73;4.80;;;14.40;99.90;;;;;;5051948;28;20421;-65
2023/09/01 05:54:21;;;;;;;7.43;5.20;;;14.50;99.90;;;;;;5053662;28;20421;-67
2023/09/01 05:56:46;;;;;;;5.67;3.90;;;14.60;99.90;;;;;;5038335;28;20218;-65
2023/09/01 05:59:12;;;;;;;8.93;4.30;;;14.60;99.90;;;;;;5033323;28;20203;-74
2023/09/01 06:01:39;;;;;;;4.80;4.40;;;14.70;99.90;;;;;;5032228;28;20183;-65
2023/09/01 06:04:05;;;;;;;8.90;4.13;;;14.70;99.90;;;;;;5033634;28;20453;-72
2023/09/01 06:06:32;;;;;;;7.67;4.67;;;14.70;99.90;;;;;;5032794;28;20899;-69
2023/09/01 06:09:01;;;;;;;9.00;5.07;;;14.70;99.90;;;;;;5032564;28;20500;-66
2023/09/01 06:11:29;;;;;;;7.50;4.10;;;14.70;99.90;;;;;;5033762;28;20445;-73
2023/09/01 06:13:55;;;;;;;6.60;4.40;;;14.70;99.90;;;;;;5032101;28;20422;-66
2023/09/01 06:16:21;;;;;;;4.73;3.80;;;14.70;99.90;;;;;;5032481;28;20966;-71
2023/09/01 06:18:47;;;;;;;4.80;4.17;;;14.70;99.90;;;;;;5033349;28;20184;-74
2023/09/01 06:21:15;;;;;;;6.30;3.93;;;14.80;99.90;;;;;;5033413;28;20160;-66
2023/09/01 06:23:45;;;;;;;7.17;4.50;;;14.90;99.90;;;;;;5032808;28;20588;-73
2023/09/01 06:26:17;;;;;;;7.20;5.60;;;14.90;99.90;;;;;;5034594;28;20512;-66
2023/09/01 06:28:43;;;;;;;6.03;4.53;;;14.90;99.90;;;;;;5040239;28;20453;-74
2023/09/01 06:31:09;;;;;;;5.10;4.70;;;15.00;99.90;;;;;;5032864;28;20404;-65
2023/09/01 06:33:40;;;;;;;6.23;4.93;;;15.00;99.90;;;;;;5033039;28;20386;-74
2023/09/01 06:36:06;;;;;;;4.53;4.23;;;15.10;99.90;;;;;;5032118;28;20333;-74
2023/09/01 06:38:31;;;;;;;5.57;4.70;;;15.20;99.90;;;;;;5032880;28;20878;-73
2023/09/01 06:40:57;;;;;;;3.90;3.50;;;15.30;99.90;;;;;;5046682;28;20421;-74
2023/09/01 06:43:23;;;;;;;3.90;3.60;;;15.40;99.90;;;;;;5030721;28;20175;-67
2023/09/01 06:45:49;;;;;;;4.20;3.30;;;15.40;99.90;;;;;;5032146;28;20182;-65
2023/09/01 06:48:14;;;;;;;3.70;2.93;;;15.40;99.90;;;;;;5032912;28;20191;-74
2023/09/01 06:50:41;;;;;;;5.23;3.27;;;15.40;99.90;;;;;;5031884;28;20202;-74
2023/09/01 06:53:06;;;;;;;8.93;4.47;;;15.50;99.90;;;;;;5033049;28;20686;-71
2023/09/01 06:55:32;;;;;;;3.40;3.00;;;15.50;99.90;;;;;;5032409;28;20466;-69
2023/09/01 06:57:59;;;;;;;3.53;3.10;;;15.60;99.90;;;;;;5032704;28;20723;-71
2023/09/01 07:00:25;;;;;;;3.30;2.73;;;15.60;99.90;;;;;;5032259;28;20194;-74
2023/09/01 07:02:51;;;;;;;5.17;2.83;;;15.70;99.90;;;;;;5032853;28;20406;-74
2023/09/01 07:05:17;;;;;;;6.27;3.60;;;15.70;99.90;;;;;;5031906;28;20402;-66
2023/09/01 07:07:43;;;;;;;5.50;3.00;;;15.80;99.90;;;;;;5032711;28;20661;-65
2023/09/01 07:10:09;;;;;;;4.87;2.40;;;15.90;99.90;;;;;;5032261;28;20434;-73
2023/09/01 07:12:35;;;;;;;4.60;3.07;;;16.00;99.90;;;;;;5032899;28;20968;-71
2023/09/01 07:15:02;;;;;;;5.37;2.80;;;16.10;99.90;;;;;;5032297;28;20399;-71
2023/09/01 07:17:28;;;;;;;4.70;2.80;;;16.00;99.90;;;;;;5031339;28;20191;-73
2023/09/01 07:19:54;;;;;;;7.53;2.50;;;16.00;99.90;;;;;;5032303;28;20433;-67
2023/09/01 07:22:19;;;;;;;6.20;3.00;;;16.10;99.90;;;;;;5031229;28;20218;-74
2023/09/01 07:24:45;;;;;;;5.00;2.97;;;16.10;99.90;;;;;;5033000;28;20180;-68
2023/09/01 07:27:11;;;;;;;6.10;2.83;;;16.10;99.90;;;;;;5030718;28;20176;-68
2023/09/01 07:29:36;;;;;;;4.67;2.60;;;16.10;99.90;;;;;;5032701;28;20164;-65
2023/09/01 07:32:05;;;;;;;3.00;2.77;;;16.20;99.90;;;;;;5031204;28;20207;-65
2023/09/01 07:34:32;;;;;;;5.60;2.70;;;16.40;99.90;;;;;;5051356;28;20179;-71
2023/09/01 07:37:00;;;;;;;3.10;2.53;;;16.50;99.90;;;;;;5051562;28;20448;-74
2023/09/01 07:39:26;;;;;;;6.57;2.70;;;16.60;99.90;;;;;;5050144;28;20494;-74
2023/09/01 07:41:51;;;;;;;3.63;2.27;;;16.70;99.90;;;;;;5051208;28;20413;-74
2023/09/01 07:44:17;;;;;;;7.47;2.80;;;16.70;92.10;;;;;;5051336;28;20163;-67
2023/09/01 07:46:43;;;;;;;10.13;3.30;;;16.70;85.70;;;;;;5051400;28;20167;-74
2023/09/01 07:49:09;;;;;;;3.60;2.60;;;16.80;77.50;;;;;;5048706;28;20527;-64
2023/09/01 07:51:35;;;;;;;4.43;2.63;;;16.80;45.00;;;;;;5035521;28;20438;-66
2023/09/01 07:54:01;;;;;;;4.63;2.80;;;16.90;50.90;;;;;;5035368;28;20206;-66
2023/09/01 07:56:26;;;;;;;4.40;3.30;;;17.10;53.50;;;;;;5035047;28;20195;-74
2023/09/01 07:58:52;;;;;;;3.20;2.40;;;17.30;39.60;;;;;;5035930;28;20195;-65
2023/09/01 08:01:18;;;;;;;3.20;2.60;;;17.40;1.00;;;;;;5035935;28;20537;-65
2023/09/01 08:03:43;;;;;;;3.13;2.50;;;17.40;1.00;;;;;;5034925;28;20210;-74
2023/09/01 08:06:09;;;;;;;2.53;2.27;;;17.40;1.00;;;;;;5034956;28;20587;-75
2023/09/01 08:08:35;;;;;;;4.03;3.40;;;17.50;1.00;;;;;;5035342;28;20188;-70
2023/09/01 08:11:00;;;;;;;2.13;1.93;;;17.60;1.00;;;;;;5035760;28;20184;-65
2023/09/01 08:13:27;;;;;;;2.63;2.40;;;17.80;1.00;;;;;;5035303;28;20214;-65
2023/09/01 08:15:53;;;;;;;8.03;2.60;;;17.90;1.00;;;;;;5034840;28;20711;-71
2023/09/01 08:18:19;;;;;;;3.10;2.40;;;18.10;1.00;;;;;;5035563;28;20422;-66
2023/09/01 08:20:45;;;;;;;4.53;2.40;;;18.20;1.00;;;;;;5035508;28;20612;-73
2023/09/01 08:23:11;;;;;;;5.27;2.13;;;18.30;1.00;;;;;;5038637;28;20449;-74
2023/09/01 08:25:37;;;;;;;2.60;2.40;;;18.20;1.00;;;;;;5033038;28;20172;-75
2023/09/01 08:28:04;;;;;;;2.93;2.10;;;18.10;1.00;;;;;;5033905;28;20214;-65
2023/09/01 08:30:29;;;;;;;4.17;1.97;;;18.00;99.90;;;;;;5034403;28;20402;-66
2023/09/01 08:32:55;;;;;;;3.30;2.17;;;18.10;99.90;;;;;;5035836;28;20433;-72
2023/09/01 08:35:21;;;;;;;2.47;2.10;;;18.10;99.90;;;;;;5039130;28;20208;-74
2023/09/01 08:37:47;;;;;;;4.40;2.03;;;18.00;99.90;;;;;;5041509;28;20194;-74
2023/09/01 08:40:12;;;;;;;5.00;2.30;;;18.00;99.90;;;;;;5055183;28;20174;-74
2023/09/01 08:42:46;;;;;;;3.53;2.80;;;18.10;99.90;;;;;;5055061;28;20254;-67
2023/09/01 08:45:14;;;;;;;6.43;2.77;;;18.00;99.90;;;;;;5054219;28;20680;-67
2023/09/01 08:47:47;;;;;;;2.50;2.30;;;18.00;99.90;;;;;;5052442;28;20421;-66
2023/09/01 08:50:15;;;;;;;10.57;2.23;;;18.10;99.90;;;;;;5052943;28;20555;-65
2023/09/01 08:52:48;;;;;;;3.10;1.87;;;18.20;99.90;;;;;;5049470;28;20430;-75
2023/09/01 08:55:18;;;;;;;6.70;2.00;;;18.10;99.90;;;;;;5033956;28;20927;-75
2023/09/01 08:57:47;;;;;;;2.30;1.90;;;18.10;99.90;;;;;;5034900;28;20932;-67
2023/09/01 09:00:13;;;;;;;3.93;2.03;;;18.30;99.90;;;;;;5034992;28;20399;-74
2023/09/01 09:02:43;;;;;;;1.87;1.77;;;18.60;99.90;;;;;;5047084;28;20789;-68
2023/09/01 09:05:13;;;;;;;2.17;1.97;;;18.70;99.90;;;;;;5052078;28;20409;-75
2023/09/01 09:07:39;;;;;;;5.47;2.07;;;18.70;99.90;;;;;;5053161;28;20456;-76
2023/09/01 09:10:06;;;;;;;2.47;1.97;;;18.70;99.90;;;;;;5053668;28;20428;-75
2023/09/01 09:12:41;;;;;;;4.33;2.23;;;18.60;99.90;;;;;;5054518;28;20412;-65
2023/09/01 09:15:08;;;;;;;3.00;2.07;;;18.50;99.90;;;;;;5053213;28;20424;-66
2023/09/01 09:17:45;;;;;;;7.83;2.03;;;18.60;99.90;;;;;;5054364;28;20447;-65
2023/09/01 09:20:17;;;;;;;7.83;2.73;;;18.80;99.90;;;;;;5054587;28;20402;-69
2023/09/01 09:23:03;;;;;;;3.60;2.30;;;19.00;99.90;;;;;;5045394;28;20826;-65
2023/09/01 09:25:33;;;;;;;2.53;2.33;;;19.40;99.90;;;;;;5032595;28;20430;-66
2023/09/01 09:28:01;;;;;;;5.27;2.30;;;19.60;99.90;;;;;;5034272;28;20414;-74
2023/09/01 09:30:27;;;;;;;2.27;1.87;;;19.70;99.90;;;;;;5034278;28;20398;-66
2023/09/01 09:33:06;;;;;;;7.13;1.83;;;19.70;99.90;;;;;;5036394;28;20664;-63
2023/09/01 09:35:34;;;;;;;4.27;2.53;;;20.10;99.90;;;;;;5049342;28;20466;-65
2023/09/01 09:38:01;;;;;;;1.97;1.73;;;20.30;99.90;;;;;;5051105;28;20455;-74
2023/09/01 09:40:27;;;;;;;2.53;1.50;;;20.50;99.90;;;;;;5053963;28;20394;-66
2023/09/01 09:42:59;;;;;;;1.70;1.60;;;20.80;99.90;;;;;;5053731;28;20396;-74
2023/09/01 09:45:26;;;;;;;8.30;2.40;;;20.90;88.80;;;;;;5052791;28;20429;-74
2023/09/01 09:47:57;;;;;;;3.23;1.70;;;20.90;73.50;;;;;;5053779;28;20430;-67
2023/09/01 09:50:27;;;;;;;2.33;1.70;;;20.90;63.90;;;;;;5053770;28;20793;-68
2023/09/01 09:53:04;;;;;;;3.70;1.93;;;20.70;43.30;;;;;;5051489;28;20464;-70
2023/09/01 09:55:31;;;;;;;6.60;1.63;;;20.60;40.70;;;;;;5052813;28;20456;-76
2023/09/01 09:58:08;;;;;;;5.17;1.77;;;20.80;57.60;;;;;;5053759;28;20458;-68
2023/09/01 10:00:40;;;;;;;1.93;1.40;;;20.70;30.00;;;;;;5053451;28;20401;-70
2023/09/01 10:03:07;;;;;;;2.30;2.10;;;20.50;14.80;;;;;;5039685;28;20422;-68
2023/09/01 10:05:33;;;;;;;4.53;1.70;;;20.40;17.30;;;;;;5032627;28;20871;-72
2023/09/01 10:08:07;;;;;;;2.73;1.93;;;20.20;25.60;;;;;;5048531;28;20471;-69
2023/09/01 10:10:36;;;;;;;1.93;1.63;;;20.10;22.10;;;;;;5053469;28;20898;-68
2023/09/01 10:13:09;;;;;;;1.87;1.50;;;20.00;26.60;;;;;;5052974;28;20397;-68
2023/09/01 10:15:35;;;;;;;2.87;1.30;;;20.90;43.00;;;;;;5051369;28;20456;-68
2023/09/01 10:18:03;;;;;;;2.27;1.60;;;21.40;11.60;;;;;;5046876;28;20450;-76
2023/09/01 10:20:37;;;;;;;1.63;1.53;;;21.70;1.00;;;;;;5032997;28;20871;-70
2023/09/01 10:23:08;;;;;;;2.90;1.50;;;22.00;1.00;;;;;;5046924;28;21033;-76
2023/09/01 10:25:34;;;;;;;1.57;1.47;;;22.60;1.00;;;;;;5052250;28;20814;-69
2023/09/01 10:28:06;;;;;;;1.70;1.20;;;23.10;1.00;;;;;;5053175;28;20417;-68
2023/09/01 10:30:36;;;;;;;2.13;1.23;;;23.40;1.00;;;;;;5053143;28;20251;-77
2023/09/01 10:33:10;;;;;;;2.27;1.60;;;23.10;1.00;;;;;;5044211;28;20434;-69
2023/09/01 10:35:57;;;;;;;2.17;1.60;;;22.70;1.00;;;;;;5050348;28;20535;-73
2023/09/01 10:38:37;;;;;;;1.73;1.20;;;22.20;1.00;;;;;;5036450;28;20454;-76
2023/09/01 10:41:03;;;;;;;2.17;1.20;;;21.80;1.00;;;;;;5033083;28;20452;-68
2023/09/01 10:43:31;;;;;;;2.50;1.17;;;21.40;1.00;;;;;;5033124;28;20406;-77
2023/09/01 10:46:12;;;;;;;3.27;1.10;;;21.80;1.00;;;;;;5032111;28;20485;-68
2023/09/01 10:48:51;;;;;;;2.20;1.20;;;22.60;1.00;;;;;;5040216;28;21694;-68
2023/09/01 10:51:24;;;;;;;3.30;1.60;;;23.30;1.00;;;;;;5032716;28;20445;-75
2023/09/01 10:53:52;;;;;;;4.50;1.13;;;23.80;1.00;;;;;;5032858;28;20418;-68
2023/09/01 10:56:20;;;;;;;1.60;1.07;;;24.40;1.00;;;;;;5031466;28;20464;-76
2023/09/01 10:58:56;;;;;;;1.40;1.10;;;24.80;1.00;;;;;;5031697;28;20788;-69
2023/09/01 11:01:25;;;;;;;1.57;0.93;;;24.90;1.00;;;;;;5032983;28;20410;-71
2023/09/01 11:03:50;;;;;;;2.00;1.13;;;24.50;1.00;;;;;;5032223;28;20407;-68
2023/09/01 11:06:16;;;;;;;1.37;1.20;;;24.10;1.00;;;;;;5036431;28;20786;-77
2023/09/01 11:08:57;;;;;;;3.07;1.40;;;23.50;1.00;;;;;;5052874;28;20197;-68
2023/09/01 11:11:23;;;;;;;6.33;1.23;;;22.90;1.00;;;;;;5037636;28;20180;-72
2023/09/01 11:13:59;;;;;;;1.60;1.03;;;23.00;1.00;;;;;;5032634;28;20744;-73
2023/09/01 11:16:25;;;;;;;1.60;1.33;;;23.30;1.00;;;;;;5034628;28;20210;-69
2023/09/01 11:19:03;;;;;;;1.20;1.10;;;23.50;1.00;;;;;;5032786;28;20426;-68
2023/09/01 11:21:32;;;;;;;1.50;1.27;;;23.20;1.00;;;;;;5035719;28;20171;-67
2023/09/01 11:24:00;;;;;;;1.30;1.20;;;22.80;1.00;;;;;;5052732;28;20460;-72
2023/09/01 11:26:26;;;;;;;1.77;1.53;;;22.30;1.00;;;;;;5055621;28;20409;-68
2023/09/01 11:28:52;;;;;;;1.20;1.10;;;21.70;1.00;;;;;;5056619;28;20555;-72
2023/09/01 11:31:17;;;;;;;1.87;1.37;;;21.60;1.00;;;;;;5055581;28;20527;-73
2023/09/01 11:33:54;;;;;;;2.90;1.30;;;21.80;1.00;;;;;;5037712;28;20191;-75
2023/09/01 11:36:20;;;;;;;1.40;1.30;;;22.10;1.00;;;;;;5035601;28;20253;-75
2023/09/01 11:38:46;;;;;;;1.40;1.13;;;22.50;1.00;;;;;;5047362;28;20446;-75
2023/09/01 11:41:16;;;;;;;1.77;1.63;;;23.00;1.00;;;;;;5036197;28;20398;-70
2023/09/01 11:43:42;;;;;;;2.80;1.30;;;23.40;1.00;;;;;;5045224;28;20419;-68
2023/09/01 11:46:10;;;;;;;2.33;1.00;;;23.60;1.00;;;;;;5035006;28;20440;-77
2023/09/01 11:48:36;;;;;;;5.03;1.23;;;24.30;1.00;;;;;;5035141;28;20430;-68
2023/09/01 11:51:02;;;;;;;2.83;1.40;;;24.80;1.00;;;;;;5050706;28;20484;-76
2023/09/01 11:53:29;;;;;;;1.50;1.27;;;25.00;1.00;;;;;;5037653;28;20514;-76
2023/09/01 11:56:01;;;;;;;2.30;1.60;;;25.20;1.00;;;;;;5035090;28;20206;-74
2023/09/01 11:58:32;;;;;;;1.33;1.23;;;24.30;1.00;;;;;;5035894;28;20418;-69
2023/09/01 12:01:09;;;;;;;2.43;1.90;;;23.60;1.00;;;;;;5034723;28;20438;-76
2023/09/01 12:03:34;;;;;;;2.80;1.90;;;22.90;1.00;;;;;;5035895;28;20403;-74
2023/09/01 12:06:01;;;;;;;2.20;1.60;;;22.20;1.00;;;;;;5034868;28;20838;-68
2023/09/01 12:08:26;;;;;;;2.23;1.53;;;21.70;1.00;;;;;;5049748;28;20241;-71
2023/09/01 12:11:07;;;;;;;3.03;1.20;;;21.20;1.00;;;;;;5055457;28;20954;-76
2023/09/01 12:13:33;;;;;;;2.77;2.10;;;20.90;1.00;;;;;;5054396;28;20232;-74
2023/09/01 12:16:02;;;;;;;1.70;1.60;;;20.80;1.00;;;;;;5054714;28;20449;-75
2023/09/01 12:18:40;;;;;;;4.47;2.03;;;20.70;1.00;;;;;;5053594;28;20195;-68
2023/09/01 12:21:07;;;;;;;1.60;1.50;;;20.70;1.00;;;;;;5035393;28;20418;-74
2023/09/01 12:23:38;;;;;;;1.87;1.63;;;20.60;1.00;;;;;;5035583;28;20406;-70
2023/09/01 12:26:04;;;;;;;2.77;1.27;;;20.60;1.00;;;;;;5034439;28;20896;-73
2023/09/01 12:28:31;;;;;;;3.60;1.93;;;20.60;1.00;;;;;;5035033;28;20791;-71
2023/09/01 12:30:58;;;;;;;2.57;1.37;;;20.80;1.00;;;;;;5035433;28;20498;-73
2023/09/01 12:33:24;;;;;;;2.70;2.50;;;20.80;1.00;;;;;;5041260;28;20482;-71
2023/09/01 12:35:51;;;;;;;1.90;1.70;;;21.10;1.00;;;;;;5052383;28;20460;-71
2023/09/01 12:38:17;;;;;;;5.60;1.60;;;21.20;1.00;;;;;;5055164;28;20417;-75
2023/09/01 12:40:44;;;;;;;1.97;1.30;;;21.40;1.00;;;;;;5055131;28;20405;-73
2023/09/01 12:43:10;;;;;;;5.00;1.50;;;21.60;1.00;;;;;;5055089;28;20867;-68
2023/09/01 12:45:35;;;;;;;1.80;1.40;;;21.50;1.00;;;;;;5052843;28;20401;-76
2023/09/01 12:48:03;;;;;;;1.80;1.50;;;21.40;1.00;;;;;;5055067;28;20433;-75
2023/09/01 12:50:30;;;;;;;2.03;1.20;;;21.30;1.00;;;;;;5042728;28;20199;-68
2023/09/01 12:52:56;;;;;;;1.80;1.53;;;21.30;1.00;;;;;;5049603;28;20926;-73